Main page
METAR-TAF:

METAR-TAF

Airports :

Sarakhs, Iran

Sarakhs Airport

latitude: 36-30-04N, longitude: 061-03-54E, elevation: 288 m

Current weather observation

The report was made 36 minutes ago, at 20:00 UTC
Wind 2 kt from the South/Southeast
Temperature 18°C
Humidity 30%
Pressure 1018 hPa

METAR: OIMC 302000Z AUTO 15002KT //// // ////// 18/00 Q1018

Time: 01:06 (20:36 UTC)


TAF: missing

Weather observations and forecasts of more than 4000 airports (METAR and TAF reports).

The available stations are represented by yellow and red dots on the map.

Hover mouse over dot to see the name of the station.

Then click to see weather observations and forecasts.

To change the map : click on the green buttons with a black cross to zoom in, on the green button with a dash to zoom out, or on the green arrows for adjacent maps.


METAR-TAF: